Time;durP1;ratioP1;P1;durP2;ratioP2;P2;SDS_P1;SDS_P2;PMS_P1;PMS_P2;Temp;Humidity;BMP_temperature;BMP_pressure;BME280_temperature;BME280_humidity;BME280_pressure;Samples;Min_cycle;Max_cycle;Signal;HPM_P1;HPM_P2
2023/01/26 00:01:32;;;;;;;54.37;25.97;;;3.30;74.30;;;;;;5104923;28;20023;-64
2023/01/26 00:03:59;;;;;;;61.00;27.73;;;3.30;74.40;;;;;;5119776;28;20038;-64
2023/01/26 00:06:25;;;;;;;61.43;30.17;;;3.30;74.40;;;;;;5112872;28;20028;-63
2023/01/26 00:08:53;;;;;;;60.40;27.80;;;3.30;74.40;;;;;;5112445;28;20106;-64
2023/01/26 00:11:29;;;;;;;66.30;30.03;;;3.30;74.40;;;;;;5102853;28;20024;-65
2023/01/26 00:13:59;;;;;;;64.27;27.00;;;3.30;74.30;;;;;;5116991;28;20064;-64
2023/01/26 00:16:26;;;;;;;61.57;28.60;;;3.30;74.40;;;;;;5110210;28;20020;-64
2023/01/26 00:18:52;;;;;;;56.27;28.63;;;3.30;74.50;;;;;;5110418;28;20023;-64
2023/01/26 00:21:20;;;;;;;61.77;28.20;;;3.30;74.50;;;;;;5113434;28;20066;-64
2023/01/26 00:23:47;;;;;;;56.53;26.27;;;3.30;74.50;;;;;;5110398;28;20032;-64
2023/01/26 00:26:16;;;;;;;59.83;26.40;;;3.30;74.60;;;;;;5125099;28;20016;-64
2023/01/26 00:28:42;;;;;;;52.17;23.73;;;3.30;74.60;;;;;;5114567;28;20028;-64
2023/01/26 00:31:12;;;;;;;56.53;26.83;;;3.30;74.60;;;;;;5111027;28;20035;-64
2023/01/26 00:33:38;;;;;;;52.17;25.87;;;3.30;75.30;;;;;;5110944;28;20119;-64
2023/01/26 00:36:04;;;;;;;55.00;25.00;;;3.30;74.60;;;;;;5108407;28;20063;-64
2023/01/26 00:38:30;;;;;;;58.60;27.03;;;3.30;74.70;;;;;;5112073;28;20024;-63
2023/01/26 00:40:56;;;;;;;57.50;25.87;;;3.30;74.60;;;;;;5114712;28;20056;-64
2023/01/26 00:43:22;;;;;;;57.67;24.93;;;3.30;74.60;;;;;;5113936;28;20035;-64
2023/01/26 00:45:50;;;;;;;51.20;25.13;;;3.30;74.60;;;;;;5107141;28;20463;-64
2023/01/26 00:48:16;;;;;;;55.03;26.33;;;3.30;74.60;;;;;;5104566;28;20463;-65
2023/01/26 00:50:42;;;;;;;53.17;25.33;;;3.30;74.60;;;;;;5107134;28;20024;-65
2023/01/26 00:53:09;;;;;;;52.07;24.00;;;3.30;74.60;;;;;;5107287;28;20054;-64
2023/01/26 00:55:35;;;;;;;52.20;24.57;;;3.30;74.70;;;;;;5097978;28;20020;-64
2023/01/26 00:58:03;;;;;;;51.30;24.93;;;3.30;74.70;;;;;;5097734;28;20042;-64
2023/01/26 01:00:29;;;;;;;51.47;23.77;;;3.30;74.70;;;;;;5094518;28;20028;-64
2023/01/26 01:02:56;;;;;;;52.60;24.63;;;3.30;74.70;;;;;;5113119;28;20318;-65
2023/01/26 01:05:26;;;;;;;51.40;23.07;;;3.30;74.70;;;;;;5114055;28;20031;-64
2023/01/26 01:07:52;;;;;;;52.63;24.57;;;3.30;74.70;;;;;;5117052;28;20039;-64
2023/01/26 01:10:18;;;;;;;51.00;25.47;;;3.30;74.70;;;;;;5115052;28;20022;-64
2023/01/26 01:12:44;;;;;;;51.43;25.93;;;3.30;74.70;;;;;;5124310;27;20071;-64
2023/01/26 01:15:10;;;;;;;52.33;24.07;;;3.30;74.70;;;;;;5114639;28;20329;-64
2023/01/26 01:17:36;;;;;;;50.63;24.87;;;3.30;74.80;;;;;;5096660;28;20130;-65
2023/01/26 01:20:04;;;;;;;56.03;25.50;;;3.30;74.80;;;;;;5115364;28;20102;-64
2023/01/26 01:22:32;;;;;;;52.90;24.73;;;3.30;74.80;;;;;;5129384;27;20413;-64
2023/01/26 01:24:57;;;;;;;51.13;25.63;;;3.30;74.80;;;;;;5121273;27;20016;-64
2023/01/26 01:27:23;;;;;;;45.77;22.90;;;3.30;74.90;;;;;;5125896;27;20051;-65
2023/01/26 01:29:50;;;;;;;53.17;27.10;;;3.40;75.00;;;;;;5115206;28;20042;-64
2023/01/26 01:32:17;;;;;;;49.80;23.13;;;3.40;75.00;;;;;;5110330;28;20539;-64
2023/01/26 01:34:48;;;;;;;51.47;23.67;;;3.40;75.00;;;;;;5104994;28;20443;-64
2023/01/26 01:37:16;;;;;;;49.47;24.23;;;3.40;75.00;;;;;;5111335;28;20120;-64
2023/01/26 01:39:42;;;;;;;47.57;23.30;;;3.40;74.90;;;;;;5109127;28;20027;-63
2023/01/26 01:42:08;;;;;;;52.27;23.57;;;3.40;74.90;;;;;;5109909;28;20046;-65
2023/01/26 01:44:35;;;;;;;48.77;23.03;;;3.40;75.00;;;;;;5122025;27;20042;-64
2023/01/26 01:47:11;;;;;;;48.63;23.47;;;3.40;75.00;;;;;;5110826;28;20038;-65
2023/01/26 01:49:51;;;;;;;49.67;23.63;;;3.40;75.10;;;;;;5114870;28;20028;-65
2023/01/26 01:52:30;;;;;;;43.10;21.43;;;3.40;75.20;;;;;;5104446;27;20016;-63
2023/01/26 01:55:06;;;;;;;46.03;22.50;;;3.40;75.20;;;;;;5113258;28;20027;-64
2023/01/26 01:57:46;;;;;;;45.97;21.13;;;3.40;75.10;;;;;;5112663;28;20344;-65
2023/01/26 02:00:17;;;;;;;47.00;23.30;;;3.40;75.20;;;;;;5113465;28;20029;-64
2023/01/26 02:03:09;;;;;;;49.35;22.55;;;3.40;75.20;;;;;;5106132;27;20024;-64
2023/01/26 02:05:34;;;;;;;47.67;22.30;;;3.40;75.20;;;;;;5113584;28;20035;-64
2023/01/26 02:08:02;;;;;;;44.43;21.07;;;3.40;75.20;;;;;;5113781;28;20352;-64
2023/01/26 02:10:29;;;;;;;44.17;21.47;;;3.30;75.20;;;;;;5115893;27;20035;-64
2023/01/26 02:12:56;;;;;;;47.07;22.10;;;3.40;75.30;;;;;;5113161;28;20062;-63
2023/01/26 02:15:23;;;;;;;45.63;20.63;;;3.30;75.20;;;;;;5114755;28;20040;-64
2023/01/26 02:17:51;;;;;;;42.57;20.63;;;3.30;75.30;;;;;;5105901;28;20455;-64
2023/01/26 02:20:27;;;;;;;45.37;21.57;;;3.30;75.30;;;;;;5108063;28;20387;-65
2023/01/26 02:23:28;;;;;;;43.47;20.83;;;3.30;75.30;;;;;;5109975;28;20056;-64
2023/01/26 02:25:56;;;;;;;41.00;18.40;;;3.40;75.40;;;;;;5113603;28;20024;-64
2023/01/26 02:28:26;;;;;;;43.27;20.37;;;3.30;75.40;;;;;;5110537;28;20020;-64
2023/01/26 02:30:53;;;;;;;41.90;20.47;;;3.30;75.40;;;;;;5111743;28;20158;-64
2023/01/26 02:33:20;;;;;;;42.33;19.53;;;3.30;75.40;;;;;;5112912;28;20051;-64
2023/01/26 02:35:47;;;;;;;41.07;19.77;;;3.40;75.40;;;;;;5113759;28;20195;-64
2023/01/26 02:38:13;;;;;;;43.50;21.13;;;3.40;75.50;;;;;;5111298;28;20053;-64
2023/01/26 02:40:55;;;;;;;40.27;20.80;;;3.40;75.50;;;;;;5113098;28;20038;-65
2023/01/26 02:43:24;;;;;;;42.90;20.35;;;3.40;75.50;;;;;;5088908;28;20081;-65
2023/01/26 02:45:51;;;;;;;34.87;18.07;;;3.40;75.50;;;;;;5093137;28;20023;-63
2023/01/26 02:49:45;;;;;;;40.57;18.10;;;3.40;75.50;;;;;;5110146;28;20110;-64
2023/01/26 02:51:03;;;;;;;38.03;18.00;;;3.40;75.50;;;;;;5120392;27;20487;-65
2023/01/26 02:53:29;;;;;;;37.33;18.47;;;3.40;75.50;;;;;;5109744;28;20051;-65
2023/01/26 02:55:55;;;;;;;38.43;18.63;;;3.40;75.60;;;;;;5114043;28;20477;-64
2023/01/26 02:58:21;;;;;;;38.93;18.13;;;3.40;75.60;;;;;;5104914;28;20031;-64
2023/01/26 03:00:47;;;;;;;37.53;16.47;;;3.40;75.60;;;;;;5113326;28;20027;-65
2023/01/26 03:03:17;;;;;;;32.30;16.33;;;3.40;75.60;;;;;;5106839;28;20052;-64
2023/01/26 03:05:43;;;;;;;35.40;16.67;;;3.40;75.70;;;;;;5113867;28;20020;-64
2023/01/26 03:08:09;;;;;;;36.00;17.07;;;3.50;75.70;;;;;;5109670;28;20126;-64
2023/01/26 03:10:36;;;;;;;40.40;18.63;;;3.40;75.60;;;;;;5111008;28;20035;-65
2023/01/26 03:13:02;;;;;;;38.93;17.87;;;3.50;75.80;;;;;;5112331;28;20035;-64
2023/01/26 03:15:51;;;;;;;36.83;17.87;;;3.40;75.70;;;;;;5100324;28;20024;-64
2023/01/26 03:29:25;;;;;;;31.77;15.77;;;3.40;75.80;;;;;;5118239;27;20059;-63
2023/01/26 03:31:53;;;;;;;34.00;16.77;;;3.40;75.90;;;;;;5107223;28;20472;-64
2023/01/26 03:34:20;;;;;;;31.80;14.60;;;3.40;75.90;;;;;;5113024;28;20444;-64
2023/01/26 03:36:47;;;;;;;33.03;16.47;;;3.50;75.90;;;;;;5110751;28;20031;-64
2023/01/26 03:58:29;;;;;;;32.27;15.70;;;3.40;76.00;;;;;;5118429;28;20028;-64
2023/01/26 04:00:56;;;;;;;33.53;14.90;;;3.40;76.10;;;;;;5106930;28;20024;-64
2023/01/26 04:08:51;;;;;;;26.90;12.53;;;3.40;76.20;;;;;;5112050;28;20436;-64
2023/01/26 04:11:18;;;;;;;28.67;14.10;;;3.40;76.20;;;;;;5100836;28;20031;-64
2023/01/26 04:22:00;;;;;;;25.73;12.40;;;3.50;76.20;;;;;;5114278;28;20036;-65
2023/01/26 04:24:27;;;;;;;28.40;13.80;;;3.50;76.20;;;;;;5102502;28;20028;-63
2023/01/26 04:26:55;;;;;;;27.67;13.33;;;3.50;76.30;;;;;;5115718;28;20020;-63
2023/01/26 04:29:25;;;;;;;22.47;11.23;;;3.50;76.30;;;;;;5116216;28;20055;-63
2023/01/26 04:31:50;;;;;;;26.97;12.57;;;3.50;76.40;;;;;;5107245;28;20115;-63
2023/01/26 04:34:19;;;;;;;24.73;12.03;;;3.50;76.30;;;;;;5106264;28;20024;-63
2023/01/26 04:36:45;;;;;;;24.30;12.43;;;3.50;76.30;;;;;;5126729;27;20080;-63
2023/01/26 04:39:12;;;;;;;24.73;12.63;;;3.50;76.30;;;;;;5117055;27;20024;-64
2023/01/26 04:41:42;;;;;;;25.23;12.40;;;3.50;76.40;;;;;;5112313;28;20060;-64
2023/01/26 04:44:11;;;;;;;24.57;11.70;;;3.50;76.50;;;;;;5113423;28;20095;-64
2023/01/26 04:46:37;;;;;;;26.63;12.17;;;3.50;76.50;;;;;;5098439;28;20068;-64
2023/01/26 04:49:03;;;;;;;29.27;13.03;;;3.50;76.50;;;;;;5133664;27;20023;-64
2023/01/26 04:51:30;;;;;;;25.27;12.40;;;3.50;76.50;;;;;;5111896;28;20424;-63
2023/01/26 04:53:56;;;;;;;26.03;11.90;;;3.50;76.50;;;;;;5110650;28;20027;-63
2023/01/26 04:56:33;;;;;;;27.17;12.63;;;3.50;76.50;;;;;;5114771;28;20062;-63
2023/01/26 04:59:02;;;;;;;24.60;12.40;;;3.50;76.50;;;;;;5107032;28;20023;-63
2023/01/26 05:01:30;;;;;;;26.27;12.33;;;3.50;76.60;;;;;;5113620;28;20016;-63
2023/01/26 05:03:59;;;;;;;28.03;13.93;;;3.50;76.60;;;;;;5115221;28;20030;-63
2023/01/26 05:06:26;;;;;;;26.67;13.20;;;3.60;76.70;;;;;;5115155;28;20023;-63
2023/01/26 05:08:53;;;;;;;26.13;12.17;;;3.50;76.60;;;;;;5115816;28;20355;-64
2023/01/26 05:11:19;;;;;;;26.57;12.60;;;3.60;76.60;;;;;;5106634;28;20023;-63
2023/01/26 05:14:00;;;;;;;29.80;13.80;;;3.60;76.60;;;;;;5107955;28;20046;-63
2023/01/26 05:16:44;;;;;;;24.93;12.23;;;3.50;76.60;;;;;;5119284;27;20026;-63
2023/01/26 05:19:44;;;;;;;23.77;12.07;;;3.60;76.70;;;;;;5066196;28;20033;-63
2023/01/26 05:22:30;;;;;;;25.73;12.53;;;3.50;76.60;;;;;;5109870;28;20088;-63
2023/01/26 05:25:22;;;;;;;;;;;3.60;76.80;;;;;;5095897;28;20126;-63
2023/01/26 05:27:57;;;;;;;24.10;12.17;;;3.50;76.60;;;;;;5114325;28;20018;-63
2023/01/26 05:30:23;;;;;;;22.60;10.90;;;3.50;76.60;;;;;;5094732;28;20103;-63
2023/01/26 05:32:49;;;;;;;23.33;11.73;;;3.50;76.60;;;;;;5113332;28;20337;-63
2023/01/26 05:35:15;;;;;;;23.47;11.47;;;3.50;76.70;;;;;;5104890;28;20049;-63
2023/01/26 05:37:42;;;;;;;28.53;13.37;;;3.50;76.80;;;;;;5109140;28;20046;-63
2023/01/26 05:40:09;;;;;;;25.30;13.43;;;3.50;76.80;;;;;;5098508;28;20092;-63
2023/01/26 05:42:36;;;;;;;24.80;12.57;;;3.50;76.90;;;;;;5113573;28;20360;-63
2023/01/26 05:45:25;;;;;;;26.37;12.87;;;3.60;77.00;;;;;;5091437;28;20044;-63
2023/01/26 05:47:54;;;;;;;27.00;13.40;;;3.60;77.00;;;;;;5114234;28;20440;-63
2023/01/26 05:50:20;;;;;;;26.23;13.00;;;3.60;77.00;;;;;;5116279;28;20137;-63
2023/01/26 05:53:06;;;;;;;26.47;12.57;;;3.60;77.00;;;;;;5112697;28;20030;-62
2023/01/26 05:55:32;;;;;;;27.47;13.23;;;3.60;76.90;;;;;;5113914;28;20079;-63
2023/01/26 05:57:57;;;;;;;27.07;13.77;;;3.60;76.90;;;;;;5098578;28;20032;-63
2023/01/26 06:00:24;;;;;;;25.83;12.90;;;3.60;77.00;;;;;;5116344;27;20030;-63
2023/01/26 06:02:57;;;;;;;26.17;12.90;;;3.60;77.00;;;;;;5110942;27;20542;-63
2023/01/26 06:05:23;;;;;;;26.80;12.27;;;3.60;77.10;;;;;;5095179;28;20125;-63
2023/01/26 06:07:49;;;;;;;27.43;12.87;;;3.60;77.10;;;;;;5104174;28;20452;-63
2023/01/26 06:10:23;;;;;;;26.83;13.10;;;3.60;77.20;;;;;;5112098;28;20030;-63
2023/01/26 06:13:08;;;;;;;23.83;12.43;;;3.60;77.20;;;;;;5105295;27;20031;-63
2023/01/26 06:15:44;;;;;;;25.10;12.47;;;3.60;77.20;;;;;;5109578;28;20066;-64
2023/01/26 06:18:09;;;;;;;24.97;12.70;;;3.60;77.20;;;;;;5092741;28;20377;-63
2023/01/26 06:20:36;;;;;;;22.63;11.10;;;3.60;77.20;;;;;;5115263;27;20020;-64
2023/01/26 06:23:04;;;;;;;26.43;12.93;;;3.70;77.30;;;;;;5107754;28;20445;-63
2023/01/26 06:25:33;;;;;;;23.47;12.53;;;3.60;77.30;;;;;;5113226;28;20024;-63
2023/01/26 06:27:59;;;;;;;24.07;12.53;;;3.70;77.30;;;;;;5101590;28;20122;-63
2023/01/26 06:30:26;;;;;;;25.00;12.07;;;3.70;77.40;;;;;;5113976;28;20046;-64
2023/01/26 06:32:56;;;;;;;25.63;12.80;;;3.60;77.30;;;;;;5094661;28;20350;-64
2023/01/26 06:35:22;;;;;;;24.50;12.90;;;3.70;77.50;;;;;;5114237;28;20088;-63
2023/01/26 06:37:50;;;;;;;27.07;12.87;;;3.70;77.50;;;;;;5091819;28;20028;-64
2023/01/26 06:40:17;;;;;;;27.00;11.90;;;3.70;77.40;;;;;;5094493;28;20107;-64
2023/01/26 06:42:50;;;;;;;27.10;11.73;;;3.70;77.50;;;;;;5107172;28;20074;-64
2023/01/26 06:45:19;;;;;;;24.37;12.40;;;3.70;77.50;;;;;;5101428;27;20456;-63
2023/01/26 06:47:50;;;;;;;25.57;12.00;;;3.70;77.50;;;;;;5109190;27;20019;-63
2023/01/26 06:50:19;;;;;;;23.93;11.93;;;3.70;77.60;;;;;;5099442;27;20024;-63
2023/01/26 06:52:49;;;;;;;22.63;11.57;;;3.70;77.60;;;;;;5105915;27;20050;-64
2023/01/26 06:55:37;;;;;;;25.33;11.43;;;3.70;77.60;;;;;;5113756;28;20042;-63
2023/01/26 06:58:25;;;;;;;22.83;11.10;;;3.70;77.60;;;;;;5103071;28;20110;-62
2023/01/26 07:00:55;;;;;;;23.20;11.10;;;3.70;78.20;;;;;;5109175;28;20164;-62
2023/01/26 07:03:34;;;;;;;24.97;11.43;;;3.70;77.60;;;;;;5097698;28;20182;-63
2023/01/26 07:06:00;;;;;;;25.33;12.20;;;3.70;77.60;;;;;;5109107;28;20015;-63
2023/01/26 07:08:26;;;;;;;24.80;12.80;;;3.70;77.60;;;;;;5106739;28;20035;-64
2023/01/26 07:10:52;;;;;;;25.43;11.30;;;3.70;77.60;;;;;;5107795;28;20027;-65
2023/01/26 07:13:18;;;;;;;22.77;11.70;;;3.80;77.70;;;;;;5106727;28;20024;-63
2023/01/26 07:15:44;;;;;;;21.30;10.17;;;3.80;77.70;;;;;;5112864;28;20355;-62
2023/01/26 07:18:09;;;;;;;23.83;10.77;;;3.80;77.70;;;;;;5111485;28;20046;-64
2023/01/26 07:20:36;;;;;;;21.10;10.07;;;3.80;77.70;;;;;;5105208;28;20433;-63
2023/01/26 07:23:01;;;;;;;21.20;9.93;;;3.80;77.70;;;;;;5100294;28;20035;-63
2023/01/26 07:25:27;;;;;;;24.13;11.20;;;3.80;77.70;;;;;;5114111;28;20076;-64
2023/01/26 07:27:57;;;;;;;23.03;10.70;;;3.80;77.80;;;;;;5113766;28;20349;-65
2023/01/26 07:30:24;;;;;;;23.10;11.30;;;3.80;77.80;;;;;;5099830;28;20019;-65
2023/01/26 07:32:50;;;;;;;24.33;12.07;;;3.80;77.80;;;;;;5103869;28;20020;-65
2023/01/26 07:35:16;;;;;;;23.57;12.73;;;3.80;77.80;;;;;;5110263;28;20439;-69
2023/01/26 07:37:43;;;;;;;24.93;12.40;;;3.90;77.90;;;;;;5107223;28;20047;-66
2023/01/26 07:40:09;;;;;;;19.53;11.07;;;3.90;77.80;;;;;;5112006;28;20028;-68
2023/01/26 07:42:35;;;;;;;21.57;10.27;;;3.90;77.80;;;;;;5093702;28;20135;-67
2023/01/26 07:45:16;;;;;;;21.77;9.63;;;3.90;77.80;;;;;;5113889;28;20095;-67
2023/01/26 07:47:43;;;;;;;24.13;9.87;;;3.90;77.80;;;;;;5114352;28;20046;-67
2023/01/26 07:50:10;;;;;;;23.20;9.90;;;3.90;77.80;;;;;;5112767;28;20011;-67
2023/01/26 07:52:37;;;;;;;22.07;10.87;;;3.90;77.80;;;;;;5105602;28;20096;-67
2023/01/26 07:55:03;;;;;;;20.97;9.80;;;4.00;77.90;;;;;;5116407;28;20020;-67
2023/01/26 07:57:30;;;;;;;19.37;9.10;;;4.00;77.90;;;;;;5113812;28;20027;-67
2023/01/26 07:59:55;;;;;;;22.23;9.53;;;4.00;77.90;;;;;;5110063;28;20541;-67
2023/01/26 08:02:21;;;;;;;22.43;11.77;;;4.00;77.90;;;;;;5095692;27;20110;-67
2023/01/26 08:04:48;;;;;;;21.27;9.93;;;4.00;78.00;;;;;;5124080;27;20053;-67
2023/01/26 08:07:14;;;;;;;21.43;10.07;;;4.00;77.90;;;;;;5108657;27;20377;-67
2023/01/26 08:09:39;;;;;;;24.20;10.77;;;4.00;77.90;;;;;;5124138;27;20081;-67
2023/01/26 08:12:06;;;;;;;19.27;9.73;;;4.00;78.00;;;;;;5104824;27;20471;-68
2023/01/26 08:14:32;;;;;;;20.77;10.17;;;4.00;77.90;;;;;;5127543;27;20091;-67
2023/01/26 08:16:58;;;;;;;23.03;11.30;;;4.10;78.00;;;;;;5105035;27;20468;-67
2023/01/26 08:19:23;;;;;;;23.50;11.00;;;4.10;77.90;;;;;;5122766;27;20050;-67
2023/01/26 08:21:49;;;;;;;24.53;10.50;;;4.10;77.90;;;;;;5107623;27;20024;-67
2023/01/26 08:24:15;;;;;;;21.70;10.07;;;4.10;77.90;;;;;;5107286;27;20413;-67
2023/01/26 08:26:40;;;;;;;22.70;10.70;;;4.10;78.00;;;;;;5124842;27;20023;-66
2023/01/26 08:29:06;;;;;;;24.17;10.50;;;4.10;78.00;;;;;;5128583;27;20337;-66
2023/01/26 08:31:32;;;;;;;22.80;10.40;;;4.10;78.00;;;;;;5113660;27;20053;-66
2023/01/26 08:33:58;;;;;;;23.27;10.13;;;4.10;78.00;;;;;;5117148;27;20463;-66
2023/01/26 08:36:24;;;;;;;24.40;10.97;;;4.20;78.00;;;;;;5105379;27;20028;-68
2023/01/26 08:38:50;;;;;;;26.00;11.50;;;4.20;78.00;;;;;;5108430;28;20032;-67
2023/01/26 08:41:16;;;;;;;21.87;10.30;;;4.20;78.00;;;;;;5102030;27;20478;-67
2023/01/26 08:43:42;;;;;;;24.07;11.03;;;4.20;78.00;;;;;;5106161;28;20050;-66
2023/01/26 08:46:08;;;;;;;26.30;11.90;;;4.20;78.00;;;;;;5095001;28;20020;-68
2023/01/26 08:48:34;;;;;;;24.50;11.67;;;4.30;78.00;;;;;;5107745;27;20037;-68
2023/01/26 08:51:02;;;;;;;24.87;12.03;;;4.30;78.10;;;;;;5081601;28;20027;-69
2023/01/26 08:53:33;;;;;;;21.50;11.27;;;4.30;78.10;;;;;;5111447;28;20308;-68
2023/01/26 08:56:03;;;;;;;27.57;12.03;;;4.30;78.10;;;;;;5100147;27;20072;-69
2023/01/26 08:58:30;;;;;;;24.37;10.47;;;4.40;78.10;;;;;;5101239;28;20020;-69
2023/01/26 09:00:57;;;;;;;24.27;11.10;;;4.40;78.10;;;;;;5104179;27;20130;-68
2023/01/26 09:03:23;;;;;;;25.67;11.63;;;4.40;78.10;;;;;;5108126;28;20115;-69
2023/01/26 09:05:48;;;;;;;25.23;11.27;;;4.40;78.10;;;;;;5103072;27;20110;-69
2023/01/26 09:08:15;;;;;;;23.00;10.33;;;4.40;78.10;;;;;;5112251;28;20039;-69
2023/01/26 09:10:43;;;;;;;26.87;12.37;;;4.50;78.10;;;;;;5102384;27;20032;-69
2023/01/26 09:13:09;;;;;;;28.37;12.37;;;4.50;78.10;;;;;;5100045;27;20029;-67
2023/01/26 09:15:37;;;;;;;28.20;12.77;;;4.50;78.10;;;;;;5111485;28;20067;-67
2023/01/26 09:18:03;;;;;;;29.83;12.87;;;4.60;78.10;;;;;;5099617;28;20393;-67
2023/01/26 09:20:29;;;;;;;25.37;12.50;;;4.60;78.10;;;;;;5096606;28;20035;-68
2023/01/26 09:22:54;;;;;;;29.33;12.13;;;4.60;78.10;;;;;;5098397;27;20024;-67
2023/01/26 09:25:20;;;;;;;30.20;12.83;;;4.60;78.10;;;;;;5106033;28;20039;-68
2023/01/26 09:27:46;;;;;;;26.90;11.37;;;4.70;78.20;;;;;;5115808;28;20035;-68
2023/01/26 09:30:12;;;;;;;24.80;11.73;;;4.70;78.20;;;;;;5115890;28;20091;-67
2023/01/26 09:32:38;;;;;;;29.23;13.17;;;4.70;78.30;;;;;;5114898;28;20035;-67
2023/01/26 09:35:04;;;;;;;29.23;12.50;;;4.70;78.30;;;;;;5115286;28;20024;-68
2023/01/26 09:37:30;;;;;;;31.10;13.37;;;4.70;78.30;;;;;;5114983;28;20043;-67
2023/01/26 09:39:55;;;;;;;25.47;11.80;;;4.70;78.40;;;;;;5115674;28;20217;-68
2023/01/26 09:42:57;;;;;;;28.00;12.00;;;4.80;78.40;;;;;;5116333;28;20101;-67
2023/01/26 09:45:43;;;;;;;26.40;12.10;;;4.80;78.50;;;;;;5106850;28;20133;-67
2023/01/26 09:48:22;;;;;;;28.53;12.20;;;4.80;78.50;;;;;;5107757;28;20059;-66
2023/01/26 09:50:56;;;;;;;29.77;13.20;;;4.80;78.50;;;;;;5116414;28;20056;-68
2023/01/26 09:53:38;;;;;;;29.73;13.77;;;4.90;78.60;;;;;;5115837;28;20155;-67
2023/01/26 09:56:04;;;;;;;;;;;4.90;78.60;;;;;;5116090;28;20407;-68
2023/01/26 09:58:39;;;;;;;25.53;10.63;;;4.90;78.50;;;;;;5115411;28;19907;-68
2023/01/26 10:01:19;;;;;;;27.97;11.90;;;4.90;78.50;;;;;;5115419;28;20042;-68
2023/01/26 10:04:00;;;;;;;27.27;11.97;;;4.90;78.50;;;;;;5114187;28;20028;-67
2023/01/26 10:06:30;;;;;;;30.47;12.97;;;5.00;78.70;;;;;;5095035;28;20038;-68
2023/01/26 10:09:14;;;;;;;27.67;12.20;;;5.00;78.60;;;;;;5115536;28;20364;-68
2023/01/26 10:11:48;;;;;;;32.87;13.70;;;5.10;78.70;;;;;;5113877;28;20360;-69
2023/01/26 10:14:44;;;;;;;28.00;11.70;;;5.20;78.70;;;;;;5114814;28;20027;-68
2023/01/26 10:17:32;;;;;;;27.63;11.47;;;5.20;78.70;;;;;;5107674;28;20416;-69
2023/01/26 10:20:05;;;;;;;28.37;11.40;;;5.30;78.60;;;;;;5111746;28;20051;-68
2023/01/26 10:22:39;;;;;;;30.20;11.57;;;5.40;78.60;;;;;;5114282;28;20035;-67
2023/01/26 10:25:35;;;;;;;27.00;10.70;;;5.40;78.70;;;;;;5115444;28;20106;-67
2023/01/26 10:28:11;;;;;;;23.40;10.97;;;5.40;78.70;;;;;;5100197;28;20119;-66
2023/01/26 10:30:39;;;;;;;23.23;10.13;;;5.50;78.70;;;;;;5114732;28;20364;-68
2023/01/26 10:33:21;;;;;;;26.60;10.97;;;5.50;78.60;;;;;;5115530;28;20493;-68
2023/01/26 10:35:46;;;;;;;26.77;10.38;;;5.60;78.70;;;;;;5097779;28;20451;-68
2023/01/26 10:38:31;;;;;;;29.80;11.10;;;5.60;78.60;;;;;;5096212;28;20106;-67
2023/01/26 10:41:03;;;;;;;24.20;10.57;;;5.70;78.60;;;;;;5114550;28;20035;-66
2023/01/26 10:43:33;;;;;;;28.20;11.53;;;5.80;78.50;;;;;;5113926;28;20048;-67
2023/01/26 10:46:01;;;;;;;26.93;12.00;;;5.90;78.50;;;;;;5115008;28;20016;-67
2023/01/26 10:48:28;;;;;;;22.53;10.37;;;6.10;78.40;;;;;;5111962;28;20019;-66
2023/01/26 10:51:12;;;;;;;21.23;9.90;;;6.30;78.20;;;;;;5115590;28;20034;-67
2023/01/26 10:53:38;;;;;;;21.43;9.33;;;6.50;77.80;;;;;;5114005;28;20433;-67
2023/01/26 10:56:15;;;;;;;23.33;9.93;;;6.70;77.50;;;;;;5115478;28;20036;-68
2023/01/26 10:58:56;;;;;;;21.10;9.30;;;6.90;77.30;;;;;;5112924;28;20035;-68
2023/01/26 11:01:26;;;;;;;19.93;9.13;;;7.00;76.90;;;;;;5115167;28;20359;-68
2023/01/26 11:04:01;;;;;;;18.80;8.77;;;7.10;76.60;;;;;;5114518;28;20063;-69
2023/01/26 11:06:30;;;;;;;18.50;8.37;;;7.20;76.50;;;;;;5127241;27;20028;-68
2023/01/26 11:09:14;;;;;;;20.63;8.67;;;7.30;76.40;;;;;;5113761;28;20486;-69
2023/01/26 11:11:40;;;;;;;17.83;8.80;;;7.40;76.30;;;;;;5114897;28;20108;-68
2023/01/26 11:14:17;;;;;;;19.00;7.97;;;7.50;76.10;;;;;;5113990;28;20115;-68
2023/01/26 11:16:58;;;;;;;18.27;7.97;;;7.70;76.00;;;;;;5106307;28;20425;-66
2023/01/26 11:19:58;;;;;;;21.17;8.02;;;7.80;75.80;;;;;;5107664;28;20042;-68
2023/01/26 11:22:38;;;;;;;18.08;7.38;;;7.90;75.60;;;;;;5104468;28;20032;-68
2023/01/26 11:25:37;;;;;;;17.03;7.83;;;8.00;75.40;;;;;;5110664;28;20039;-67
2023/01/26 11:28:14;;;;;;;15.77;6.90;;;8.10;75.30;;;;;;5111795;28;20436;-67
2023/01/26 11:31:03;;;;;;;14.60;5.83;;;8.20;75.20;;;;;;5117528;27;20115;-68
2023/01/26 11:33:41;;;;;;;21.40;7.57;;;8.30;75.30;;;;;;5101270;27;20114;-69
2023/01/26 11:36:34;;;;;;;17.80;6.80;;;8.30;75.30;;;;;;5112855;27;20037;-69
2023/01/26 11:39:26;;;;;;;15.80;7.23;;;8.30;75.30;;;;;;5107890;27;20028;-68
2023/01/26 11:42:10;;;;;;;;;;;8.30;75.20;;;;;;5112281;27;20046;-68
2023/01/26 11:44:54;;;;;;;14.27;5.73;;;8.30;75.20;;;;;;5110300;28;19923;-67
2023/01/26 11:47:44;;;;;;;18.80;7.13;;;8.30;75.30;;;;;;5107682;28;20061;-68
2023/01/26 11:50:44;;;;;;;15.90;6.63;;;8.30;75.50;;;;;;5101110;28;20453;-68
2023/01/26 11:53:25;;;;;;;16.13;6.60;;;8.30;75.60;;;;;;5107963;28;20051;-68
2023/01/26 11:56:21;;;;;;;13.47;6.50;;;8.20;75.70;;;;;;5114925;28;20034;-68
2023/01/26 11:59:09;;;;;;;14.37;6.13;;;8.20;75.80;;;;;;5089697;28;20077;-67
2023/01/26 12:02:03;;;;;;;13.80;6.03;;;8.20;76.00;;;;;;5109040;28;20081;-67
2023/01/26 12:04:32;;;;;;;17.53;6.10;;;8.20;76.10;;;;;;5101017;28;20120;-67
2023/01/26 12:07:12;;;;;;;19.43;6.20;;;8.20;76.20;;;;;;5102256;28;20436;-67
2023/01/26 12:09:45;;;;;;;15.27;5.77;;;8.20;76.50;;;;;;5099200;28;20066;-68
2023/01/26 12:12:39;;;;;;;15.93;5.97;;;8.20;76.50;;;;;;5117410;28;20023;-68
2023/01/26 12:15:10;;;;;;;18.67;5.93;;;8.20;76.70;;;;;;5091064;28;20062;-67
2023/01/26 12:17:47;;;;;;;11.77;4.95;;;8.20;76.70;;;;;;5093120;28;20444;-67
2023/01/26 12:20:39;;;;;;;13.07;4.40;;;8.20;76.80;;;;;;5100960;28;20043;-67
2023/01/26 12:23:08;;;;;;;14.30;5.28;;;8.30;76.90;;;;;;5102050;28;20035;-69
2023/01/26 12:25:40;;;;;;;14.63;4.32;;;8.30;76.90;;;;;;5102967;28;20080;-67
2023/01/26 12:28:24;;;;;;;17.00;5.50;;;8.40;77.00;;;;;;5118502;28;20048;-68
2023/01/26 12:31:11;;;;;;;13.02;5.20;;;8.40;77.10;;;;;;5119607;28;20392;-68
2023/01/26 12:33:37;;;;;;;15.27;4.87;;;8.40;77.20;;;;;;5105380;28;20043;-68
2023/01/26 12:36:21;;;;;;;14.90;4.95;;;8.40;77.10;;;;;;5094768;28;20030;-67
2023/01/26 12:39:07;;;;;;;17.05;5.38;;;8.50;77.40;;;;;;5119403;27;20042;-66
2023/01/26 12:41:59;;;;;;;11.20;3.95;;;8.50;77.40;;;;;;5114352;27;20164;-67
2023/01/26 12:44:39;;;;;;;14.30;3.63;;;8.50;77.50;;;;;;5133063;27;20500;-68
2023/01/26 12:47:11;;;;;;;13.18;4.13;;;8.60;77.60;;;;;;5116288;27;20026;-69
2023/01/26 12:49:55;;;;;;;15.98;3.60;;;8.60;77.60;;;;;;5116894;27;20432;-68
2023/01/26 12:52:28;;;;;;;14.70;3.75;;;8.70;77.60;;;;;;5130446;27;20043;-69
2023/01/26 12:54:57;;;;;;;14.88;3.58;;;8.70;77.60;;;;;;5099109;27;20032;-69
2023/01/26 12:57:31;;;;;;;14.93;2.85;;;8.70;77.60;;;;;;5129521;27;20023;-67
2023/01/26 13:00:15;;;;;;;15.33;3.03;;;8.80;77.80;;;;;;5111893;27;20031;-68
2023/01/26 13:02:45;;;;;;;13.77;3.28;;;8.80;77.90;;;;;;5115583;27;20110;-66
2023/01/26 13:05:24;;;;;;;14.88;4.07;;;8.80;77.80;;;;;;5119582;27;20032;-68
2023/01/26 13:07:52;;;;;;;11.13;2.60;;;8.80;77.90;;;;;;5114551;28;20084;-68
2023/01/26 13:10:24;;;;;;;15.75;3.58;;;8.80;77.90;;;;;;5113625;27;20444;-67
2023/01/26 13:12:58;;;;;;;14.95;3.22;;;8.80;78.00;;;;;;5131543;27;20403;-67
2023/01/26 13:15:29;;;;;;;8.95;2.45;;;8.90;78.00;;;;;;5102153;27;20024;-69
2023/01/26 13:18:03;;;;;;;16.50;3.13;;;8.80;78.00;;;;;;5131539;27;20031;-68
2023/01/26 13:20:47;;;;;;;14.68;2.85;;;8.90;78.10;;;;;;5130199;27;20042;-68
2023/01/26 13:23:42;;;;;;;17.70;3.28;;;8.80;78.00;;;;;;5120944;27;20464;-68
2023/01/26 13:26:32;;;;;;;15.10;2.65;;;8.80;78.00;;;;;;5098046;28;20062;-68
2023/01/26 13:29:31;;;;;;;10.18;2.83;;;8.90;78.10;;;;;;5116654;28;20402;-69
2023/01/26 13:32:20;;;;;;;10.02;2.08;;;8.90;78.00;;;;;;5119398;27;20111;-69
2023/01/26 13:34:52;;;;;;;12.80;1.95;;;8.90;78.00;;;;;;5105769;28;20034;-69
2023/01/26 13:37:40;;;;;;;12.88;3.20;;;8.90;78.00;;;;;;5115688;28;20444;-69
2023/01/26 13:40:16;;;;;;;16.10;3.08;;;8.90;78.00;;;;;;5115020;28;20043;-69
2023/01/26 13:43:12;;;;;;;12.50;2.20;;;8.90;78.00;;;;;;5106891;28;20060;-69
2023/01/26 13:46:09;;;;;;;12.80;2.65;;;8.90;78.00;;;;;;5097207;28;20043;-69
2023/01/26 13:48:47;;;;;;;11.05;1.70;;;8.90;78.00;;;;;;5106555;28;20019;-68
2023/01/26 13:51:16;;;;;;;14.27;2.75;;;8.90;78.00;;;;;;5105820;28;20038;-68